Time;durP1;ratioP1;P1;durP2;ratioP2;P2;SDS_P1;SDS_P2;PMS_P1;PMS_P2;Temp;Humidity;BMP_temperature;BMP_pressure;BME280_temperature;BME280_humidity;BME280_pressure;Samples;Min_cycle;Max_cycle;Signal;HPM_P1;HPM_P2
2021/08/20 00:01:52;;;;;;;2.58;1.35;;;;;;;;;;5039411;28;20025;-81
2021/08/20 00:04:18;;;;;;;1.88;1.13;;;;;;;;;;5040361;28;20049;-80
2021/08/20 00:06:44;;;;;;;2.47;1.50;;;;;;;;;;5040125;28;20025;-80
2021/08/20 00:09:10;;;;;;;1.65;1.10;;;;;;;;;;5042605;28;20018;-82
2021/08/20 00:11:39;;;;;;;4.63;2.17;;;;;;;;;;5043016;28;20022;-80
2021/08/20 00:14:06;;;;;;;3.25;1.50;;;;;;;;;;5038643;28;20032;-81
2021/08/20 00:16:32;;;;;;;5.32;1.40;;;;;;;;;;5036639;28;20040;-81
2021/08/20 00:18:58;;;;;;;2.88;1.30;;;;;;;;;;5037341;28;20025;-80
2021/08/20 00:21:24;;;;;;;4.57;1.20;;;;;;;;;;5038955;28;20029;-81
2021/08/20 00:23:50;;;;;;;3.08;1.00;;;;;;;;;;5037875;28;20041;-81
2021/08/20 00:26:16;;;;;;;4.32;1.58;;;;;;;;;;5037997;28;20025;-81
2021/08/20 00:28:42;;;;;;;1.20;1.10;;;;;;;;;;5036150;28;20581;-81
2021/08/20 00:31:08;;;;;;;4.55;1.50;;;;;;;;;;5036746;28;20029;-81
2021/08/20 00:33:36;;;;;;;2.60;1.35;;;;;;;;;;5035924;28;20022;-81
2021/08/20 00:36:02;;;;;;;4.00;1.30;;;;;;;;;;5035970;28;20033;-81
2021/08/20 00:38:29;;;;;;;3.00;1.60;;;;;;;;;;5037330;28;20045;-81
2021/08/20 00:40:55;;;;;;;3.22;1.27;;;;;;;;;;5036750;28;20529;-81
2021/08/20 00:43:22;;;;;;;2.17;1.50;;;;;;;;;;5036873;28;20059;-79
2021/08/20 00:45:58;;;;;;;2.47;1.40;;;;;;;;;;5036147;28;20029;-81
2021/08/20 00:48:25;;;;;;;2.25;1.25;;;;;;;;;;5037420;28;20022;-83
2021/08/20 00:50:56;;;;;;;3.40;1.48;;;;;;;;;;5036973;28;20056;-80
2021/08/20 00:53:22;;;;;;;4.90;1.50;;;;;;;;;;5035296;28;20022;-80
2021/08/20 00:55:48;;;;;;;4.78;1.60;;;;;;;;;;5037300;28;20037;-81
2021/08/20 00:58:14;;;;;;;2.90;1.23;;;;;;;;;;5036958;28;20037;-81
2021/08/20 01:00:40;;;;;;;1.70;1.35;;;;;;;;;;5035647;28;20030;-81
2021/08/20 01:03:06;;;;;;;4.22;1.73;;;;;;;;;;5035870;28;20072;-81
2021/08/20 01:05:32;;;;;;;3.55;1.63;;;;;;;;;;5037197;28;20397;-81
2021/08/20 01:07:59;;;;;;;2.30;1.30;;;;;;;;;;5037813;28;20402;-81
2021/08/20 01:10:25;;;;;;;2.10;1.40;;;;;;;;;;5037025;28;20136;-82
2021/08/20 01:12:51;;;;;;;3.55;1.50;;;;;;;;;;5037634;28;20454;-82
2021/08/20 01:15:17;;;;;;;2.17;1.50;;;;;;;;;;5037399;28;20052;-81
2021/08/20 01:17:43;;;;;;;4.10;1.30;;;;;;;;;;5037276;28;20030;-81
2021/08/20 01:20:11;;;;;;;5.75;1.52;;;;;;;;;;5035550;28;20040;-81
2021/08/20 01:22:37;;;;;;;4.22;2.00;;;;;;;;;;5036785;28;20030;-82
2021/08/20 01:25:04;;;;;;;2.25;1.25;;;;;;;;;;5037291;28;20049;-81
2021/08/20 01:27:33;;;;;;;3.45;1.60;;;;;;;;;;5038632;28;20033;-81
2021/08/20 01:29:59;;;;;;;4.18;2.35;;;;;;;;;;5039624;28;20028;-81
2021/08/20 01:32:26;;;;;;;5.53;1.65;;;;;;;;;;5035477;28;20565;-81
2021/08/20 01:34:52;;;;;;;2.22;1.58;;;;;;;;;;5037730;28;20470;-81
2021/08/20 01:37:18;;;;;;;3.55;1.52;;;;;;;;;;5036914;28;20037;-81
2021/08/20 01:39:44;;;;;;;4.13;1.67;;;;;;;;;;5038049;28;20033;-80
2021/08/20 01:42:10;;;;;;;4.10;1.67;;;;;;;;;;5051235;28;20036;-80
2021/08/20 01:44:36;;;;;;;4.57;1.58;;;;;;;;;;5050684;28;20017;-80
2021/08/20 01:47:02;;;;;;;3.58;1.63;;;;;;;;;;5048735;28;20124;-82
2021/08/20 01:49:28;;;;;;;5.10;1.40;;;;;;;;;;5036247;28;20064;-82
2021/08/20 01:51:54;;;;;;;4.68;1.58;;;;;;;;;;5036429;28;20017;-81
2021/08/20 01:54:20;;;;;;;4.10;1.80;;;;;;;;;;5036063;28;20057;-82
2021/08/20 01:56:48;;;;;;;5.35;1.40;;;;;;;;;;5037025;28;20464;-81
2021/08/20 01:59:14;;;;;;;1.77;1.20;;;;;;;;;;5041110;28;20026;-80
2021/08/20 02:01:40;;;;;;;6.82;1.45;;;;;;;;;;5046409;28;20116;-80
2021/08/20 02:04:06;;;;;;;2.88;1.60;;;;;;;;;;5045040;28;20036;-80
2021/08/20 02:06:33;;;;;;;1.98;1.30;;;;;;;;;;5045848;28;20510;-80
2021/08/20 02:08:59;;;;;;;2.00;1.40;;;;;;;;;;5041566;28;20525;-81
2021/08/20 02:11:25;;;;;;;4.22;1.20;;;;;;;;;;5036993;28;20021;-81
2021/08/20 02:13:51;;;;;;;3.20;1.50;;;;;;;;;;5039189;28;20021;-82
2021/08/20 02:16:17;;;;;;;4.32;1.30;;;;;;;;;;5039614;28;20371;-81
2021/08/20 02:18:43;;;;;;;3.17;1.55;;;;;;;;;;5044332;28;20061;-81
2021/08/20 02:21:09;;;;;;;4.05;1.65;;;;;;;;;;5042015;28;20124;-81
2021/08/20 02:23:37;;;;;;;3.28;1.40;;;;;;;;;;5039603;28;20048;-82
2021/08/20 02:26:03;;;;;;;4.78;1.55;;;;;;;;;;5039593;28;20021;-81
2021/08/20 02:28:29;;;;;;;3.03;1.73;;;;;;;;;;5041587;28;20083;-81
2021/08/20 02:30:55;;;;;;;4.22;1.30;;;;;;;;;;5037754;28;20022;-81
2021/08/20 02:33:23;;;;;;;2.50;1.48;;;;;;;;;;5040459;28;20045;-81
2021/08/20 02:35:49;;;;;;;6.65;1.50;;;;;;;;;;5040419;28;20091;-81
2021/08/20 02:38:15;;;;;;;3.80;1.65;;;;;;;;;;5039726;28;20473;-81
2021/08/20 02:40:41;;;;;;;2.53;1.50;;;;;;;;;;5040360;28;20475;-81
2021/08/20 02:43:07;;;;;;;5.43;1.75;;;;;;;;;;5039161;28;20028;-81
2021/08/20 02:45:33;;;;;;;3.20;1.70;;;;;;;;;;5039246;28;20577;-82
2021/08/20 02:47:59;;;;;;;4.95;1.35;;;;;;;;;;5039805;28;20017;-81
2021/08/20 02:50:25;;;;;;;5.78;1.52;;;;;;;;;;5038373;28;20028;-81
2021/08/20 02:52:51;;;;;;;3.67;1.77;;;;;;;;;;5038609;28;20030;-81
2021/08/20 02:55:17;;;;;;;2.60;1.67;;;;;;;;;;5039374;28;20036;-81
2021/08/20 02:57:43;;;;;;;3.50;1.83;;;;;;;;;;5039063;28;20018;-81
2021/08/20 03:00:09;;;;;;;4.88;1.90;;;;;;;;;;5038220;28;20574;-81
2021/08/20 03:02:35;;;;;;;4.03;1.60;;;;;;;;;;5039035;28;20038;-81
2021/08/20 03:05:01;;;;;;;5.90;1.48;;;;;;;;;;5037159;28;20057;-81
2021/08/20 03:07:27;;;;;;;2.92;1.52;;;;;;;;;;5036890;28;20029;-81
2021/08/20 03:09:53;;;;;;;6.25;1.52;;;;;;;;;;5038663;28;20147;-80
2021/08/20 03:12:21;;;;;;;2.35;1.55;;;;;;;;;;5039225;28;20060;-80
2021/08/20 03:14:48;;;;;;;2.28;1.60;;;;;;;;;;5039118;28;20022;-80
2021/08/20 03:17:13;;;;;;;3.75;1.80;;;;;;;;;;5038727;28;20501;-80
2021/08/20 03:19:39;;;;;;;3.92;1.98;;;;;;;;;;5039370;28;20116;-80
2021/08/20 03:22:05;;;;;;;5.53;1.83;;;;;;;;;;5040862;28;20041;-82
2021/08/20 03:24:31;;;;;;;4.35;1.98;;;;;;;;;;5038487;28;20618;-81
2021/08/20 03:26:57;;;;;;;3.78;1.80;;;;;;;;;;5040406;28;20124;-81
2021/08/20 03:29:23;;;;;;;2.85;1.60;;;;;;;;;;5040227;28;20148;-81
2021/08/20 03:31:49;;;;;;;3.40;1.67;;;;;;;;;;5038182;28;20102;-81
2021/08/20 03:34:15;;;;;;;4.97;1.50;;;;;;;;;;5037495;28;20034;-81
2021/08/20 03:36:41;;;;;;;3.35;1.65;;;;;;;;;;5038091;28;20034;-81
2021/08/20 03:39:07;;;;;;;3.30;1.70;;;;;;;;;;5037421;28;20056;-81
2021/08/20 03:41:33;;;;;;;4.65;1.90;;;;;;;;;;5037541;28;20029;-82
2021/08/20 03:43:59;;;;;;;4.03;1.70;;;;;;;;;;5037688;28;20043;-82
2021/08/20 03:46:25;;;;;;;4.00;1.60;;;;;;;;;;5038428;28;20437;-81
2021/08/20 03:48:51;;;;;;;5.95;1.75;;;;;;;;;;5037755;28;20509;-80
2021/08/20 03:51:17;;;;;;;4.32;1.35;;;;;;;;;;5039099;28;20037;-81
2021/08/20 03:53:43;;;;;;;3.22;1.67;;;;;;;;;;5039279;28;20022;-81
2021/08/20 03:56:09;;;;;;;4.03;1.75;;;;;;;;;;5039850;28;20029;-82
2021/08/20 03:58:35;;;;;;;3.08;1.42;;;;;;;;;;5038378;28;20467;-82
2021/08/20 04:01:05;;;;;;;3.95;1.33;;;;;;;;;;5037652;28;20057;-81
2021/08/20 04:03:31;;;;;;;2.30;1.70;;;;;;;;;;5038222;28;20029;-82
2021/08/20 04:05:57;;;;;;;2.17;1.33;;;;;;;;;;5038160;28;20064;-82
2021/08/20 04:08:23;;;;;;;2.80;1.55;;;;;;;;;;5038152;28;20030;-82
2021/08/20 04:10:49;;;;;;;4.75;1.50;;;;;;;;;;5039517;28;20034;-79
2021/08/20 04:13:17;;;;;;;4.05;1.55;;;;;;;;;;5037483;28;20026;-81
2021/08/20 04:15:43;;;;;;;3.20;1.63;;;;;;;;;;5036767;28;20026;-81
2021/08/20 04:18:09;;;;;;;2.42;1.60;;;;;;;;;;5036734;28;20654;-82
2021/08/20 04:20:35;;;;;;;5.03;1.70;;;;;;;;;;5036564;28;20053;-82
2021/08/20 04:23:01;;;;;;;4.90;1.60;;;;;;;;;;5037016;28;20129;-81
2021/08/20 04:25:28;;;;;;;2.17;1.45;;;;;;;;;;5037296;28;20090;-82
2021/08/20 04:27:54;;;;;;;4.25;1.70;;;;;;;;;;5036347;28;20029;-82
2021/08/20 04:30:21;;;;;;;4.75;1.70;;;;;;;;;;5037609;28;20394;-81
2021/08/20 04:32:47;;;;;;;4.25;1.58;;;;;;;;;;5039375;28;20034;-82
2021/08/20 04:35:14;;;;;;;2.28;1.35;;;;;;;;;;5038274;28;20028;-82
2021/08/20 04:37:40;;;;;;;5.82;1.98;;;;;;;;;;5040071;28;20104;-82
2021/08/20 04:40:06;;;;;;;3.25;1.73;;;;;;;;;;5042562;28;20017;-81
2021/08/20 04:42:32;;;;;;;4.63;1.63;;;;;;;;;;5037476;28;20108;-82
2021/08/20 04:44:58;;;;;;;3.40;1.95;;;;;;;;;;5037671;28;20064;-82
2021/08/20 04:47:24;;;;;;;6.10;1.90;;;;;;;;;;5036910;28;20033;-80
2021/08/20 04:49:50;;;;;;;4.97;1.73;;;;;;;;;;5037149;28;20030;-80
2021/08/20 04:52:16;;;;;;;2.72;1.58;;;;;;;;;;5039120;28;20028;-79
2021/08/20 04:54:42;;;;;;;3.72;1.70;;;;;;;;;;5056183;28;20029;-78
2021/08/20 04:57:08;;;;;;;8.43;2.03;;;;;;;;;;5056452;28;20037;-79
2021/08/20 04:59:35;;;;;;;5.05;1.60;;;;;;;;;;5039434;28;20037;-81
2021/08/20 05:02:02;;;;;;;4.75;1.80;;;;;;;;;;5042461;28;20029;-80
2021/08/20 05:04:28;;;;;;;4.65;1.75;;;;;;;;;;5045333;28;20100;-81
2021/08/20 05:06:54;;;;;;;3.22;1.80;;;;;;;;;;5044051;28;20033;-81
2021/08/20 05:09:20;;;;;;;3.42;1.95;;;;;;;;;;5038057;28;20028;-81
2021/08/20 05:11:46;;;;;;;3.83;1.80;;;;;;;;;;5038995;28;20053;-81
2021/08/20 05:14:12;;;;;;;3.88;1.67;;;;;;;;;;5038481;28;20474;-80
2021/08/20 05:16:38;;;;;;;2.88;1.90;;;;;;;;;;5039839;28;20029;-81
2021/08/20 05:19:04;;;;;;;2.90;1.60;;;;;;;;;;5039496;28;20343;-80
2021/08/20 05:21:30;;;;;;;4.65;1.70;;;;;;;;;;5020542;28;20030;-81
2021/08/20 05:23:56;;;;;;;5.75;2.10;;;;;;;;;;5035845;28;20061;-81
2021/08/20 05:26:24;;;;;;;1.90;1.35;;;;;;;;;;5037528;28;20063;-81
2021/08/20 05:28:50;;;;;;;4.05;1.48;;;;;;;;;;5035952;28;20033;-81
2021/08/20 05:31:16;;;;;;;2.92;1.30;;;;;;;;;;5020448;28;20026;-81
2021/08/20 05:33:42;;;;;;;2.40;1.52;;;;;;;;;;5037271;28;20022;-81
2021/08/20 05:36:09;;;;;;;3.60;1.63;;;;;;;;;;5036895;28;20092;-81
2021/08/20 05:38:35;;;;;;;6.25;1.50;;;;;;;;;;5036959;28;20488;-81
2021/08/20 05:41:01;;;;;;;5.88;2.50;;;;;;;;;;5037373;28;20100;-81
2021/08/20 05:43:30;;;;;;;3.28;1.35;;;;;;;;;;5038010;28;20060;-80
2021/08/20 05:45:56;;;;;;;5.30;2.05;;;;;;;;;;5038275;28;20481;-80
2021/08/20 05:48:22;;;;;;;2.50;1.52;;;;;;;;;;5041456;28;20034;-80
2021/08/20 05:50:48;;;;;;;4.85;1.58;;;;;;;;;;5040962;28;20076;-84
2021/08/20 05:53:14;;;;;;;5.07;1.88;;;;;;;;;;5040851;28;20049;-81
2021/08/20 05:55:40;;;;;;;3.38;1.77;;;;;;;;;;5039956;28;20034;-81
2021/08/20 05:58:06;;;;;;;2.53;1.83;;;;;;;;;;5042681;28;20394;-81
2021/08/20 06:00:33;;;;;;;4.35;1.85;;;;;;;;;;5047701;28;20557;-80
2021/08/20 06:02:59;;;;;;;3.35;1.50;;;;;;;;;;5047004;28;20029;-79
2021/08/20 06:05:24;;;;;;;5.22;1.98;;;;;;;;;;5042469;28;20494;-80
2021/08/20 06:07:50;;;;;;;2.53;1.80;;;;;;;;;;5039867;28;20068;-80
2021/08/20 06:10:18;;;;;;;4.20;1.50;;;;;;;;;;5044862;28;20051;-79
2021/08/20 06:12:44;;;;;;;4.00;1.90;;;;;;;;;;5054567;28;20033;-78
2021/08/20 06:15:10;;;;;;;3.33;2.08;;;;;;;;;;5053463;28;20089;-80
2021/08/20 06:17:36;;;;;;;6.88;2.10;;;;;;;;;;5051293;28;20029;-81
2021/08/20 06:20:04;;;;;;;2.65;1.77;;;;;;;;;;5046758;28;20049;-81
2021/08/20 06:22:30;;;;;;;3.90;1.88;;;;;;;;;;5040842;28;20021;-81
2021/08/20 06:24:56;;;;;;;5.00;2.10;;;;;;;;;;5040317;28;20097;-80
2021/08/20 06:27:22;;;;;;;4.20;2.20;;;;;;;;;;5040731;28;20077;-81
2021/08/20 06:29:48;;;;;;;4.60;2.30;;;;;;;;;;5042309;28;20032;-80
2021/08/20 06:32:14;;;;;;;4.15;1.70;;;;;;;;;;5043088;28;20043;-81
2021/08/20 06:34:40;;;;;;;3.70;2.30;;;;;;;;;;5043049;28;20084;-81
2021/08/20 06:37:06;;;;;;;5.03;2.03;;;;;;;;;;5041493;28;20026;-81
2021/08/20 06:39:32;;;;;;;4.75;2.20;;;;;;;;;;5039994;28;20082;-81
2021/08/20 06:42:00;;;;;;;4.80;2.17;;;;;;;;;;5040699;28;20029;-82
2021/08/20 06:44:26;;;;;;;5.35;2.63;;;;;;;;;;5038517;28;20041;-80
2021/08/20 06:46:52;;;;;;;6.75;2.70;;;;;;;;;;5040437;28;20036;-81
2021/08/20 06:49:18;;;;;;;6.80;2.53;;;;;;;;;;5022557;28;20128;-80
2021/08/20 06:51:44;;;;;;;3.65;2.08;;;;;;;;;;5039666;28;20104;-80
2021/08/20 06:54:10;;;;;;;5.40;2.60;;;;;;;;;;5041231;28;20021;-81
2021/08/20 06:56:36;;;;;;;3.63;2.88;;;;;;;;;;5038842;28;20121;-81
2021/08/20 06:59:03;;;;;;;5.50;2.63;;;;;;;;;;5039162;28;20034;-81
2021/08/20 07:01:29;;;;;;;5.78;2.88;;;;;;;;;;5040980;28;20021;-81
2021/08/20 07:03:56;;;;;;;5.03;2.97;;;;;;;;;;5041941;28;20501;-81
2021/08/20 07:06:25;;;;;;;5.15;2.90;;;;;;;;;;5041130;28;20021;-81
2021/08/20 07:08:52;;;;;;;5.93;2.58;;;;;;;;;;5040138;28;20025;-81
2021/08/20 07:11:18;;;;;;;4.72;3.15;;;;;;;;;;5041465;28;20030;-81
2021/08/20 07:13:44;;;;;;;4.82;3.00;;;;;;;;;;5041898;28;20025;-81
2021/08/20 07:16:10;;;;;;;5.22;2.60;;;;;;;;;;5041645;28;20108;-81
2021/08/20 07:18:37;;;;;;;4.07;2.83;;;;;;;;;;5041571;28;20021;-81
2021/08/20 07:21:03;;;;;;;5.85;3.13;;;;;;;;;;5041016;28;20025;-82
2021/08/20 07:23:29;;;;;;;3.47;2.65;;;;;;;;;;5040184;28;20029;-82
2021/08/20 07:25:56;;;;;;;6.60;3.05;;;;;;;;;;5040526;28;20037;-81
2021/08/20 07:28:21;;;;;;;4.97;3.05;;;;;;;;;;5039432;28;20057;-81
2021/08/20 07:30:47;;;;;;;5.25;3.00;;;;;;;;;;5037901;28;20021;-81
2021/08/20 07:33:13;;;;;;;4.90;3.17;;;;;;;;;;5038155;28;20033;-81
2021/08/20 07:35:39;;;;;;;5.40;2.75;;;;;;;;;;5040068;28;20053;-81
2021/08/20 07:38:06;;;;;;;5.93;2.83;;;;;;;;;;5042364;28;20114;-81
2021/08/20 07:40:32;;;;;;;4.45;3.35;;;;;;;;;;5041880;28;20494;-81
2021/08/20 07:42:57;;;;;;;5.70;3.38;;;;;;;;;;5038044;28;20045;-80
2021/08/20 07:45:24;;;;;;;7.57;3.00;;;;;;;;;;5043309;23;20133;-77
2021/08/20 07:47:50;;;;;;;4.15;2.85;;;;;;;;;;5013349;28;20060;-78
2021/08/20 07:50:17;;;;;;;4.50;3.10;;;;;;;;;;5012613;28;20486;-78
2021/08/20 07:52:44;;;;;;;5.90;3.15;;;;;;;;;;5013405;28;20022;-78
2021/08/20 07:55:10;;;;;;;6.78;3.08;;;;;;;;;;5012886;28;20033;-78
2021/08/20 07:57:49;;;;;;;4.88;2.78;;;;;;;;;;5013107;28;20032;-77
2021/08/20 08:00:18;;;;;;;6.63;2.88;;;;;;;;;;5012521;28;20033;-77
2021/08/20 08:02:44;;;;;;;7.63;2.60;;;;;;;;;;5012916;28;20061;-78
2021/08/20 08:05:10;;;;;;;5.40;2.67;;;;;;;;;;5012893;28;20429;-78
2021/08/20 08:07:36;;;;;;;3.80;2.33;;;;;;;;;;5012765;28;20030;-78
2021/08/20 08:10:03;;;;;;;3.28;2.20;;;;;;;;;;5011730;28;20170;-78
2021/08/20 08:12:29;;;;;;;5.72;2.22;;;;;;;;;;5013061;28;20026;-78
2021/08/20 08:14:55;;;;;;;6.18;2.60;;;;;;;;;;5023595;28;20060;-78
2021/08/20 08:17:21;;;;;;;4.18;2.20;;;;;;;;;;5031059;28;20061;-78
2021/08/20 08:19:47;;;;;;;4.20;1.88;;;;;;;;;;5032006;28;20228;-78
2021/08/20 08:22:13;;;;;;;3.30;2.08;;;;;;;;;;5032362;28;20032;-78
2021/08/20 08:24:39;;;;;;;5.63;2.35;;;;;;;;;;5032139;28;20040;-78
2021/08/20 08:27:05;;;;;;;5.43;2.20;;;;;;;;;;5032234;28;20025;-78
2021/08/20 08:29:31;;;;;;;4.20;2.35;;;;;;;;;;5032111;28;20363;-78
2021/08/20 08:31:57;;;;;;;4.30;2.45;;;;;;;;;;5032047;28;20128;-78
2021/08/20 08:34:23;;;;;;;5.85;2.33;;;;;;;;;;5031987;28;20026;-78
2021/08/20 08:36:49;;;;;;;7.47;2.70;;;;;;;;;;5014505;28;20028;-77
2021/08/20 08:39:15;;;;;;;4.65;2.17;;;;;;;;;;5031133;28;20143;-78
2021/08/20 08:41:41;;;;;;;4.60;2.40;;;;;;;;;;5014331;28;20029;-78
2021/08/20 08:44:07;;;;;;;5.60;2.50;;;;;;;;;;5032080;28;20097;-78
2021/08/20 08:46:37;;;;;;;4.30;2.30;;;;;;;;;;5031621;28;20041;-78
2021/08/20 08:49:06;;;;;;;3.85;2.40;;;;;;;;;;5014025;28;20021;-78
2021/08/20 08:51:32;;;;;;;8.02;2.28;;;;;;;;;;5014158;28;20018;-78
2021/08/20 08:53:58;;;;;;;3.92;2.10;;;;;;;;;;5031687;28;20041;-78
2021/08/20 08:56:24;;;;;;;5.07;2.50;;;;;;;;;;5031792;28;20068;-78
2021/08/20 08:58:51;;;;;;;5.45;2.20;;;;;;;;;;5031788;28;20116;-78
2021/08/20 09:01:30;;;;;;;5.38;2.95;;;;;;;;;;5031524;28;20034;-77
2021/08/20 09:04:16;;;;;;;3.60;2.33;;;;;;;;;;5014513;28;20553;-77
2021/08/20 09:06:46;;;;;;;4.38;2.58;;;;;;;;;;5003838;28;20029;-77
2021/08/20 09:09:13;;;;;;;3.85;2.47;;;;;;;;;;5013383;28;20036;-78
2021/08/20 09:11:40;;;;;;;3.35;2.67;;;;;;;;;;5031546;28;20053;-78
2021/08/20 09:14:07;;;;;;;4.72;2.60;;;;;;;;;;5027387;28;20038;-78
2021/08/20 09:16:42;;;;;;;5.20;3.08;;;;;;;;;;5010536;28;20041;-78
2021/08/20 09:19:19;;;;;;;4.45;2.42;;;;;;;;;;5011460;28;20034;-78
2021/08/20 09:21:52;;;;;;;5.90;2.47;;;;;;;;;;5013513;28;20064;-78
2021/08/20 09:24:30;;;;;;;4.53;3.13;;;;;;;;;;5015740;28;20045;-77
2021/08/20 09:27:15;;;;;;;5.93;2.55;;;;;;;;;;5015722;28;20022;-78
2021/08/20 09:29:56;;;;;;;5.25;2.58;;;;;;;;;;5015157;28;20022;-78
2021/08/20 09:32:24;;;;;;;3.75;2.28;;;;;;;;;;5015690;28;20510;-78
2021/08/20 09:34:50;;;;;;;4.50;2.45;;;;;;;;;;5015685;28;20026;-78
2021/08/20 09:37:16;;;;;;;6.57;2.42;;;;;;;;;;5015818;28;20446;-77
2021/08/20 09:39:45;;;;;;;6.55;2.55;;;;;;;;;;5015036;28;20448;-78
2021/08/20 09:42:13;;;;;;;2.90;2.22;;;;;;;;;;4998146;28;20440;-78
2021/08/20 09:44:39;;;;;;;4.40;2.15;;;;;;;;;;5023891;28;20028;-77
2021/08/20 09:47:05;;;;;;;3.80;2.28;;;;;;;;;;5035229;28;20167;-78
2021/08/20 09:49:32;;;;;;;3.13;1.90;;;;;;;;;;5034649;28;20100;-78
2021/08/20 09:51:58;;;;;;;7.93;1.98;;;;;;;;;;5035002;28;20036;-78
2021/08/20 09:54:30;;;;;;;3.53;2.15;;;;;;;;;;5034778;28;20033;-77
2021/08/20 09:56:57;;;;;;;3.55;2.22;;;;;;;;;;5035172;28;20524;-77
2021/08/20 09:59:27;;;;;;;2.92;2.20;;;;;;;;;;5034396;28;20082;-77
2021/08/20 10:01:53;;;;;;;3.50;2.10;;;;;;;;;;5017284;28;20503;-78
2021/08/20 10:04:20;;;;;;;3.25;1.88;;;;;;;;;;5034961;28;20033;-78
2021/08/20 10:06:47;;;;;;;2.95;1.90;;;;;;;;;;5035011;28;20021;-77
2021/08/20 10:09:17;;;;;;;4.22;1.63;;;;;;;;;;5034059;28;20026;-78
2021/08/20 10:11:51;;;;;;;5.10;2.00;;;;;;;;;;5034858;28;20026;-78
2021/08/20 10:14:18;;;;;;;6.65;2.33;;;;;;;;;;5034801;28;20037;-78
2021/08/20 10:16:44;;;;;;;4.53;2.13;;;;;;;;;;5033759;28;20029;-78
2021/08/20 10:19:10;;;;;;;3.90;2.00;;;;;;;;;;5034409;28;20022;-78
2021/08/20 10:21:38;;;;;;;3.63;2.00;;;;;;;;;;5035235;28;20433;-78
2021/08/20 10:24:04;;;;;;;2.45;1.90;;;;;;;;;;5034820;28;20033;-78
2021/08/20 10:26:31;;;;;;;3.63;2.00;;;;;;;;;;5034684;28;20021;-78
2021/08/20 10:28:58;;;;;;;3.40;2.00;;;;;;;;;;5034060;28;20079;-78
2021/08/20 10:31:24;;;;;;;4.20;2.20;;;;;;;;;;5034688;28;20029;-78
2021/08/20 10:33:50;;;;;;;4.43;2.35;;;;;;;;;;5034401;28;20025;-78
2021/08/20 10:36:16;;;;;;;4.97;2.20;;;;;;;;;;5034406;28;20042;-78
2021/08/20 10:38:44;;;;;;;4.72;2.10;;;;;;;;;;5034236;28;20049;-78
2021/08/20 10:41:13;;;;;;;5.75;2.45;;;;;;;;;;5016376;28;20424;-78
2021/08/20 10:43:54;;;;;;;3.03;2.13;;;;;;;;;;5034223;28;20498;-78
2021/08/20 10:46:32;;;;;;;2.58;2.10;;;;;;;;;;5016351;28;20041;-79
2021/08/20 10:49:11;;;;;;;4.57;1.83;;;;;;;;;;5016236;28;20437;-78
2021/08/20 10:51:52;;;;;;;3.38;2.10;;;;;;;;;;5034297;28;20104;-78
2021/08/20 10:54:24;;;;;;;3.03;2.03;;;;;;;;;;5016287;28;20052;-78
2021/08/20 10:56:50;;;;;;;2.90;1.92;;;;;;;;;;5034234;28;20493;-78
2021/08/20 10:59:35;;;;;;;4.25;1.85;;;;;;;;;;5016183;28;20435;-78
2021/08/20 11:02:16;;;;;;;2.97;1.98;;;;;;;;;;5034257;28;20367;-78
2021/08/20 11:04:57;;;;;;;3.70;1.90;;;;;;;;;;5034245;28;20109;-78
2021/08/20 11:07:42;;;;;;;4.03;1.92;;;;;;;;;;5034293;28;20032;-78
2021/08/20 11:10:11;;;;;;;2.35;2.03;;;;;;;;;;5033899;28;20047;-79
2021/08/20 11:12:55;;;;;;;2.97;1.80;;;;;;;;;;5034229;28;20123;-76
2021/08/20 11:15:21;;;;;;;3.17;1.65;;;;;;;;;;5033596;28;20021;-77
2021/08/20 11:17:50;;;;;;;2.53;1.67;;;;;;;;;;5032519;28;20021;-76
2021/08/20 11:20:21;;;;;;;5.55;2.13;;;;;;;;;;5032997;28;20025;-76
2021/08/20 11:23:08;;;;;;;9.00;2.30;;;;;;;;;;5033442;28;20082;-76
2021/08/20 11:25:41;;;;;;;3.15;1.83;;;;;;;;;;5022669;28;20330;-76
2021/08/20 11:28:32;;;;;;;2.72;2.03;;;;;;;;;;5034159;28;20048;-78
2021/08/20 11:30:57;;;;;;;2.65;1.70;;;;;;;;;;5026027;28;20029;-76
2021/08/20 11:33:32;;;;;;;3.80;1.90;;;;;;;;;;5033510;28;20366;-76
2021/08/20 11:35:59;;;;;;;2.75;1.90;;;;;;;;;;5033193;28;20045;-78
2021/08/20 11:38:29;;;;;;;2.70;1.80;;;;;;;;;;5033370;28;20485;-77
2021/08/20 11:40:58;;;;;;;3.13;1.85;;;;;;;;;;5014719;28;20036;-77
2021/08/20 11:43:27;;;;;;;5.30;1.88;;;;;;;;;;5015712;28;20040;-77
2021/08/20 11:46:04;;;;;;;5.30;1.55;;;;;;;;;;5032203;28;20041;-77
2021/08/20 11:48:31;;;;;;;2.50;1.67;;;;;;;;;;5015545;28;20021;-77
2021/08/20 11:50:59;;;;;;;4.32;2.67;;;;;;;;;;5032361;28;20029;-77
2021/08/20 11:53:25;;;;;;;4.00;1.80;;;;;;;;;;5033104;28;20498;-77
2021/08/20 11:56:07;;;;;;;4.43;1.83;;;;;;;;;;5032695;28;20044;-77
2021/08/20 11:58:33;;;;;;;2.97;1.92;;;;;;;;;;5032916;28;20478;-77
2021/08/20 12:00:59;;;;;;;4.72;1.70;;;;;;;;;;5014785;28;20055;-77
2021/08/20 12:03:26;;;;;;;4.05;2.15;;;;;;;;;;5032787;28;20031;-77
2021/08/20 12:06:10;;;;;;;3.95;1.92;;;;;;;;;;5032787;28;20021;-76
2021/08/20 12:08:37;;;;;;;3.42;1.60;;;;;;;;;;5032806;28;20021;-77
2021/08/20 12:11:04;;;;;;;2.65;1.85;;;;;;;;;;5032267;28;20021;-77
2021/08/20 12:13:30;;;;;;;2.72;1.80;;;;;;;;;;5033029;28;20436;-77
2021/08/20 12:15:56;;;;;;;3.13;1.85;;;;;;;;;;5032759;28;20116;-77
2021/08/20 12:18:23;;;;;;;3.63;1.70;;;;;;;;;;5034108;28;20060;-76
2021/08/20 12:20:50;;;;;;;2.75;1.85;;;;;;;;;;5046376;28;20025;-76
2021/08/20 12:23:16;;;;;;;4.72;1.80;;;;;;;;;;5053300;28;20034;-76
2021/08/20 12:25:42;;;;;;;5.00;1.85;;;;;;;;;;5053560;28;20029;-76
2021/08/20 12:28:13;;;;;;;9.00;1.80;;;;;;;;;;5053620;28;20037;-77
2021/08/20 12:30:40;;;;;;;2.53;1.75;;;;;;;;;;5034302;28;20022;-77
2021/08/20 12:33:06;;;;;;;4.25;1.60;;;;;;;;;;5033104;28;20026;-77
2021/08/20 12:35:32;;;;;;;4.72;1.75;;;;;;;;;;5032629;28;20104;-77
2021/08/20 12:38:00;;;;;;;2.85;1.80;;;;;;;;;;5032184;28;20040;-77
2021/08/20 12:40:32;;;;;;;3.25;1.83;;;;;;;;;;5031550;28;20030;-76
2021/08/20 12:42:58;;;;;;;5.03;2.28;;;;;;;;;;5032273;28;20045;-76
2021/08/20 12:45:24;;;;;;;2.83;1.90;;;;;;;;;;5031748;28;20026;-77
2021/08/20 12:47:59;;;;;;;4.13;1.77;;;;;;;;;;5032063;28;20116;-77
2021/08/20 12:50:26;;;;;;;3.63;2.00;;;;;;;;;;5031447;28;20030;-77
2021/08/20 12:52:59;;;;;;;2.63;1.65;;;;;;;;;;5031715;28;20033;-76
2021/08/20 12:55:46;;;;;;;3.28;1.90;;;;;;;;;;5031210;28;20474;-77
2021/08/20 12:58:12;;;;;;;1.80;1.38;;;;;;;;;;5032031;28;20029;-76
2021/08/20 13:00:39;;;;;;;3.05;1.70;;;;;;;;;;5031607;28;20036;-77
2021/08/20 13:03:09;;;;;;;3.03;1.70;;;;;;;;;;5032226;28;20080;-77
2021/08/20 13:05:35;;;;;;;5.57;1.85;;;;;;;;;;5031804;28;20501;-77
2021/08/20 13:08:02;;;;;;;4.43;1.90;;;;;;;;;;5031782;28;20061;-77
2021/08/20 13:10:28;;;;;;;2.58;1.73;;;;;;;;;;5031050;28;20041;-77
2021/08/20 13:12:56;;;;;;;4.63;1.88;;;;;;;;;;5031826;28;20032;-77
2021/08/20 13:15:22;;;;;;;2.60;1.85;;;;;;;;;;5031483;28;20022;-77
2021/08/20 13:17:48;;;;;;;2.53;1.80;;;;;;;;;;5032290;28;20037;-77
2021/08/20 13:20:15;;;;;;;6.88;1.70;;;;;;;;;;5014163;28;20071;-78
2021/08/20 13:22:44;;;;;;;4.60;2.00;;;;;;;;;;5032757;28;20033;-78
2021/08/20 13:25:12;;;;;;;4.00;1.95;;;;;;;;;;5032264;28;20030;-77
2021/08/20 13:27:38;;;;;;;3.10;1.77;;;;;;;;;;5032192;28;20543;-77
2021/08/20 13:30:04;;;;;;;3.70;1.80;;;;;;;;;;5031001;28;20036;-77
2021/08/20 13:32:30;;;;;;;3.50;1.98;;;;;;;;;;5031552;28;20092;-77
2021/08/20 13:34:56;;;;;;;2.70;1.70;;;;;;;;;;5031470;28;20124;-78
2021/08/20 13:37:23;;;;;;;4.80;1.92;;;23.20;91.90;;;;;;5031735;28;20413;-77
2021/08/20 13:39:48;;;;;;;3.55;2.10;;;37.40;56.50;;;;;;5030808;28;20034;-76
2021/08/20 13:42:14;;;;;;;3.28;2.00;;;36.10;55.30;;;;;;5031449;28;20029;-77
2021/08/20 13:44:40;;;;;;;2.55;2.08;;;35.90;55.60;;;;;;5013533;28;20109;-77
2021/08/20 13:47:05;;;;;;;3.08;1.73;;;35.40;55.70;;;;;;5034961;22;20525;-79
2021/08/20 13:49:31;;;;;;;3.00;2.10;;;35.90;55.70;;;;;;5016755;28;20389;-78
2021/08/20 13:51:56;;;;;;;3.00;2.05;;;34.00;56.20;;;;;;5000433;28;20553;-78
2021/08/20 13:54:23;;;;;;;2.58;1.83;;;33.30;59.20;;;;;;5018217;28;20034;-78
2021/08/20 13:56:48;;;;;;;3.35;2.40;;;34.00;58.00;;;;;;5018868;28;20026;-78
2021/08/20 13:59:14;;;;;;;2.95;1.73;;;34.70;56.30;;;;;;5020822;28;20060;-78
2021/08/20 14:01:40;;;;;;;2.42;1.80;;;33.90;55.10;;;;;;5027701;28;20506;-76
2021/08/20 14:04:05;;;;;;;2.58;1.85;;;33.30;57.40;;;;;;5028884;28;20034;-77
2021/08/20 14:06:31;;;;;;;7.50;2.83;;;31.90;59.60;;;;;;5026827;28;20038;-77
2021/08/20 14:08:57;;;;;;;3.42;1.65;;;31.00;60.20;;;;;;5028827;28;20028;-77
2021/08/20 14:11:23;;;;;;;2.90;2.20;;;30.60;61.20;;;;;;5023202;28;20081;-78
2021/08/20 14:13:49;;;;;;;3.28;1.90;;;31.40;62.70;;;;;;5024805;28;20037;-77
2021/08/20 14:16:14;;;;;;;3.33;2.13;;;32.70;59.30;;;;;;5041051;28;20036;-78
2021/08/20 14:18:40;;;;;;;2.58;1.77;;;33.80;57.40;;;;;;5040818;28;20057;-78
2021/08/20 14:21:07;;;;;;;2.72;1.88;;;34.70;55.60;;;;;;5041070;28;20080;-77
2021/08/20 14:23:33;;;;;;;3.13;1.88;;;33.90;55.30;;;;;;5042154;28;20044;-78
2021/08/20 14:25:59;;;;;;;4.40;1.85;;;34.00;57.40;;;;;;5041285;28;20517;-77
2021/08/20 14:28:25;;;;;;;2.90;1.83;;;33.30;57.30;;;;;;5023756;28;20031;-79
2021/08/20 14:30:50;;;;;;;3.15;1.80;;;32.70;58.30;;;;;;5041262;28;20037;-78
2021/08/20 14:33:19;;;;;;;2.10;1.83;;;32.00;58.40;;;;;;5025632;28;20034;-77
2021/08/20 14:35:45;;;;;;;3.67;1.70;;;32.10;59.00;;;;;;5042549;28;20021;-77